Hlavní strana
METAR-TAF:

METAR-TAF

Letiště :

San Andrés, Kolumbie

zeměpisná šířka: 12-35N, zeměpisná délka: 081-43W, výška: 1 m

Aktuální stav počasí

Zpráva byla vytvořena před 1 hodinou a 8 minutami, v 09:00 UTC
vítr z různých směrů 2 kt
Teplota 23°C
Vlhkost vzduchu 100%
Tlak 1013 hPa
Viditelnost 10 km a více
Polojasno ve výšce 1000 ft
Oblačno až skoro zataženo ve výšce 7000 ft
mrholení

METAR: SKSP 240900Z VRB02KT 9999 DZ SCT010 BKN070 23/23 A2990 RERA

Čas: 05:08 (10:08 UTC)

Předpověď počasí

Zpráva byla vytvořena před 5 hodinami a 38 minutami, v 04:30 UTC
Předpověď platná od 24 v 06 UTC do 25 v 06 UTC
Severoseverovýchodní vítr 10 kt
Viditelnost 10 km a více
Polojasno ve výšce 1700 ft
Polojasno ve výšce 8000 ft
Pravděpodobnost 40% :
Dočasný
od 24 v 08 UTC do 24 v 10 UTC
Viditelnost: 5000 m
Polojasno ve výšce 1700 ft, Vertikální cumulus.
mrholení, déšť

TAF: SKSP 240430Z 2406/2506 02010KT 9999 SCT017 SCT080 PROB40 TEMPO 2408/2410 5000 DZRA SCT017TCU TX30/2419Z TN25/2411Z

Stav a předpovědi počasí z více než 4 000 letišť (zprávy METAR a TAF).

Červené a žluté tečky na mapě představují dostupné meteorologické stanice.

Když kurzor umístíte na tečku, zobrazí se název stanice.

Pak kliknutím zobrazíte stav a předpověď počasí.

Chcete-li změnit mapu, kliknutím na zelené tlačítko se znaménkem +mapu přiblížíte, kliknutím na zelené tlačítko se znaménkem – mapu oddálíte a kliknutím na zelené šipky přejdete na sousední mapy.


METAR-TAF: